sensor_id;sensor_type;location;lat;lon;timestamp;pressure;altitude;pressure_sealevel;temperature;humidity
75543;BME280;64129;53.508;10.476;2023-03-14T00:00:50;98379.19;;;11.11;77.60
75543;BME280;64129;53.508;10.476;2023-03-14T00:03:17;98364.25;;;11.09;78.34
75543;BME280;64129;53.508;10.476;2023-03-14T00:05:43;98361.03;;;11.04;77.07
75543;BME280;64129;53.508;10.476;2023-03-14T00:08:10;98369.31;;;11.13;76.14
75543;BME280;64129;53.508;10.476;2023-03-14T00:10:37;98396.53;;;10.60;79.19
75543;BME280;64129;53.508;10.476;2023-03-14T00:13:04;98404.31;;;10.63;79.44
75543;BME280;64129;53.508;10.476;2023-03-14T00:15:33;98413.59;;;10.56;80.08
75543;BME280;64129;53.508;10.476;2023-03-14T00:18:00;98419.97;;;10.53;79.72
75543;BME280;64129;53.508;10.476;2023-03-14T00:20:27;98418.16;;;10.54;80.30
75543;BME280;64129;53.508;10.476;2023-03-14T00:22:53;98422.91;;;10.49;80.31
75543;BME280;64129;53.508;10.476;2023-03-14T00:25:20;98421.75;;;10.53;80.45
75543;BME280;64129;53.508;10.476;2023-03-14T00:27:46;98409.53;;;10.50;80.48
75543;BME280;64129;53.508;10.476;2023-03-14T00:30:13;98398.63;;;10.41;80.11
75543;BME280;64129;53.508;10.476;2023-03-14T00:32:39;98395.31;;;10.51;79.33
75543;BME280;64129;53.508;10.476;2023-03-14T00:35:08;98396.53;;;10.46;79.64
75543;BME280;64129;53.508;10.476;2023-03-14T00:37:34;98395.28;;;10.37;80.33
75543;BME280;64129;53.508;10.476;2023-03-14T00:40:01;98400.88;;;10.32;80.55
75543;BME280;64129;53.508;10.476;2023-03-14T00:42:27;98387.69;;;10.31;79.99
75543;BME280;64129;53.508;10.476;2023-03-14T00:44:54;98380.88;;;10.27;80.30
75543;BME280;64129;53.508;10.476;2023-03-14T00:47:20;98369.03;;;10.32;79.09
75543;BME280;64129;53.508;10.476;2023-03-14T00:49:47;98359.38;;;10.31;79.50
75543;BME280;64129;53.508;10.476;2023-03-14T00:52:14;98350.59;;;10.15;80.32
75543;BME280;64129;53.508;10.476;2023-03-14T00:54:40;98342.13;;;10.24;80.06
75543;BME280;64129;53.508;10.476;2023-03-14T00:57:07;98336.06;;;10.22;79.81
75543;BME280;64129;53.508;10.476;2023-03-14T00:59:33;98332.31;;;10.11;80.03
75543;BME280;64129;53.508;10.476;2023-03-14T01:02:00;98340.00;;;10.15;79.97
75543;BME280;64129;53.508;10.476;2023-03-14T01:04:27;98331.75;;;10.20;79.53
75543;BME280;64129;53.508;10.476;2023-03-14T01:06:54;98352.13;;;10.19;78.54
75543;BME280;64129;53.508;10.476;2023-03-14T01:09:20;98358.69;;;9.98;79.47
75543;BME280;64129;53.508;10.476;2023-03-14T01:11:47;98375.66;;;9.95;79.95
75543;BME280;64129;53.508;10.476;2023-03-14T01:14:13;98388.06;;;9.95;79.91
75543;BME280;64129;53.508;10.476;2023-03-14T01:16:40;98393.81;;;9.87;79.78
75543;BME280;64129;53.508;10.476;2023-03-14T01:19:06;98391.06;;;9.89;79.42
75543;BME280;64129;53.508;10.476;2023-03-14T01:21:35;98384.38;;;9.97;79.49
75543;BME280;64129;53.508;10.476;2023-03-14T01:24:03;98364.38;;;9.92;79.76
75543;BME280;64129;53.508;10.476;2023-03-14T01:26:32;98370.84;;;10.02;78.90
75543;BME280;64129;53.508;10.476;2023-03-14T01:28:59;98377.84;;;10.03;79.60
75543;BME280;64129;53.508;10.476;2023-03-14T01:31:27;98363.81;;;10.01;79.45
75543;BME280;64129;53.508;10.476;2023-03-14T01:33:54;98370.50;;;10.08;79.43
75543;BME280;64129;53.508;10.476;2023-03-14T01:36:21;98357.22;;;10.08;79.15
75543;BME280;64129;53.508;10.476;2023-03-14T01:38:47;98345.69;;;10.09;79.06
75543;BME280;64129;53.508;10.476;2023-03-14T01:41:18;98340.38;;;10.09;79.81
75543;BME280;64129;53.508;10.476;2023-03-14T01:43:46;98319.16;;;10.09;79.54
75543;BME280;64129;53.508;10.476;2023-03-14T01:46:25;98324.00;;;10.17;79.87
75543;BME280;64129;53.508;10.476;2023-03-14T01:49:02;98337.94;;;10.20;78.92
75543;BME280;64129;53.508;10.476;2023-03-14T01:51:49;98354.53;;;10.24;79.33
75543;BME280;64129;53.508;10.476;2023-03-14T01:54:43;98343.72;;;10.27;78.79
75543;BME280;64129;53.508;10.476;2023-03-14T01:57:33;98326.97;;;10.26;79.47
75543;BME280;64129;53.508;10.476;2023-03-14T02:00:13;98309.16;;;10.28;79.39
75543;BME280;64129;53.508;10.476;2023-03-14T02:02:56;98294.94;;;10.29;78.57
75543;BME280;64129;53.508;10.476;2023-03-14T02:05:28;98309.63;;;10.35;78.08
75543;BME280;64129;53.508;10.476;2023-03-14T02:08:01;98307.81;;;10.36;77.82
75543;BME280;64129;53.508;10.476;2023-03-14T02:10:40;98313.78;;;10.39;77.62
75543;BME280;64129;53.508;10.476;2023-03-14T02:13:09;98329.81;;;10.38;78.26
75543;BME280;64129;53.508;10.476;2023-03-14T02:15:55;98312.38;;;10.34;79.81
75543;BME280;64129;53.508;10.476;2023-03-14T02:18:40;98300.25;;;10.29;80.36
75543;BME280;64129;53.508;10.476;2023-03-14T02:27:25;98250.47;;;10.05;81.30
75543;BME280;64129;53.508;10.476;2023-03-14T02:30:02;98246.19;;;10.02;81.74
75543;BME280;64129;53.508;10.476;2023-03-14T02:32:31;98250.75;;;9.86;82.99
75543;BME280;64129;53.508;10.476;2023-03-14T02:35:01;98251.88;;;9.96;82.31
75543;BME280;64129;53.508;10.476;2023-03-14T02:37:36;98254.72;;;9.93;82.41
75543;BME280;64129;53.508;10.476;2023-03-14T02:40:05;98250.19;;;9.95;82.27
75543;BME280;64129;53.508;10.476;2023-03-14T02:42:33;98253.97;;;9.77;83.12
75543;BME280;64129;53.508;10.476;2023-03-14T02:47:39;98273.75;;;9.85;81.96
75543;BME280;64129;53.508;10.476;2023-03-14T02:50:14;98282.00;;;9.81;82.13
75543;BME280;64129;53.508;10.476;2023-03-14T02:52:42;98274.00;;;9.66;82.90
75543;BME280;64129;53.508;10.476;2023-03-14T02:55:09;98280.47;;;9.77;81.92
75543;BME280;64129;53.508;10.476;2023-03-14T02:57:38;98281.00;;;9.67;82.56
75543;BME280;64129;53.508;10.476;2023-03-14T03:00:05;98273.81;;;9.69;82.33
75543;BME280;64129;53.508;10.476;2023-03-14T03:02:35;98281.19;;;9.64;82.42
75543;BME280;64129;53.508;10.476;2023-03-14T03:05:02;98268.22;;;9.60;82.73
75543;BME280;64129;53.508;10.476;2023-03-14T03:07:28;98275.34;;;9.74;81.38
75543;BME280;64129;53.508;10.476;2023-03-14T03:09:56;98270.50;;;9.66;81.69
75543;BME280;64129;53.508;10.476;2023-03-14T03:12:23;98277.59;;;9.65;81.71
75543;BME280;64129;53.508;10.476;2023-03-14T03:14:49;98268.50;;;9.69;80.94
75543;BME280;64129;53.508;10.476;2023-03-14T03:17:16;98263.06;;;9.73;81.14
75543;BME280;64129;53.508;10.476;2023-03-14T03:19:43;98261.50;;;9.68;81.18
75543;BME280;64129;53.508;10.476;2023-03-14T03:22:09;98263.19;;;9.69;81.34
75543;BME280;64129;53.508;10.476;2023-03-14T03:24:39;98261.34;;;9.72;81.00
75543;BME280;64129;53.508;10.476;2023-03-14T03:27:06;98256.72;;;9.75;80.68
75543;BME280;64129;53.508;10.476;2023-03-14T03:29:32;98242.97;;;9.83;79.98
75543;BME280;64129;53.508;10.476;2023-03-14T03:31:59;98238.63;;;9.82;80.29
75543;BME280;64129;53.508;10.476;2023-03-14T03:34:27;98226.03;;;9.85;79.75
75543;BME280;64129;53.508;10.476;2023-03-14T03:36:57;98228.59;;;9.87;79.91
75543;BME280;64129;53.508;10.476;2023-03-14T03:39:26;98224.81;;;9.91;79.59
75543;BME280;64129;53.508;10.476;2023-03-14T03:41:52;98229.06;;;9.93;79.55
75543;BME280;64129;53.508;10.476;2023-03-14T03:44:19;98217.41;;;9.96;79.57
75543;BME280;64129;53.508;10.476;2023-03-14T03:46:46;98214.56;;;9.99;79.28
75543;BME280;64129;53.508;10.476;2023-03-14T03:49:12;98214.47;;;10.00;80.01
75543;BME280;64129;53.508;10.476;2023-03-14T03:51:39;98208.31;;;10.00;79.78
75543;BME280;64129;53.508;10.476;2023-03-14T03:54:06;98202.47;;;10.09;79.30
75543;BME280;64129;53.508;10.476;2023-03-14T03:56:32;98210.34;;;10.11;79.91
75543;BME280;64129;53.508;10.476;2023-03-14T03:58:59;98212.69;;;10.15;79.21
75543;BME280;64129;53.508;10.476;2023-03-14T04:01:25;98210.13;;;10.14;78.99
75543;BME280;64129;53.508;10.476;2023-03-14T04:03:55;98215.25;;;10.17;78.83
75543;BME280;64129;53.508;10.476;2023-03-14T04:06:22;98203.78;;;10.16;78.69
75543;BME280;64129;53.508;10.476;2023-03-14T04:08:50;98200.19;;;10.17;78.96
75543;BME280;64129;53.508;10.476;2023-03-14T04:11:32;98197.72;;;10.14;79.38
75543;BME280;64129;53.508;10.476;2023-03-14T04:14:09;98193.38;;;10.13;78.69
75543;BME280;64129;53.508;10.476;2023-03-14T04:16:35;98201.53;;;10.10;78.96
75543;BME280;64129;53.508;10.476;2023-03-14T04:19:11;98187.50;;;10.08;78.55
75543;BME280;64129;53.508;10.476;2023-03-14T04:21:38;98191.09;;;10.07;78.59
75543;BME280;64129;53.508;10.476;2023-03-14T04:24:09;98174.59;;;10.02;79.01
75543;BME280;64129;53.508;10.476;2023-03-14T04:26:35;98183.31;;;10.04;78.50
75543;BME280;64129;53.508;10.476;2023-03-14T04:29:02;98178.97;;;10.03;78.81
75543;BME280;64129;53.508;10.476;2023-03-14T04:31:29;98173.50;;;10.06;78.17
75543;BME280;64129;53.508;10.476;2023-03-14T04:33:55;98177.16;;;10.04;77.90
75543;BME280;64129;53.508;10.476;2023-03-14T04:36:29;98175.00;;;10.10;77.86
75543;BME280;64129;53.508;10.476;2023-03-14T04:39:01;98174.34;;;10.07;78.16
75543;BME280;64129;53.508;10.476;2023-03-14T04:41:27;98176.81;;;10.10;77.94
75543;BME280;64129;53.508;10.476;2023-03-14T04:43:54;98181.06;;;10.12;78.06
75543;BME280;64129;53.508;10.476;2023-03-14T04:46:21;98174.50;;;10.18;77.68
75543;BME280;64129;53.508;10.476;2023-03-14T04:48:47;98170.06;;;10.18;77.86
75543;BME280;64129;53.508;10.476;2023-03-14T04:51:16;98161.00;;;10.22;76.98
75543;BME280;64129;53.508;10.476;2023-03-14T04:53:43;98145.72;;;10.26;77.32
75543;BME280;64129;53.508;10.476;2023-03-14T04:56:11;98162.69;;;10.23;77.44
75543;BME280;64129;53.508;10.476;2023-03-14T04:58:41;98142.97;;;10.27;76.96
75543;BME280;64129;53.508;10.476;2023-03-14T05:01:08;98147.53;;;10.25;77.09
75543;BME280;64129;53.508;10.476;2023-03-14T05:03:49;98150.53;;;10.34;76.21
75543;BME280;64129;53.508;10.476;2023-03-14T05:06:22;98136.50;;;10.31;76.17
75543;BME280;64129;53.508;10.476;2023-03-14T05:09:07;98131.97;;;10.34;76.13
75543;BME280;64129;53.508;10.476;2023-03-14T05:11:53;98134.06;;;10.28;76.79
75543;BME280;64129;53.508;10.476;2023-03-14T05:14:38;98132.16;;;10.30;76.20
75543;BME280;64129;53.508;10.476;2023-03-14T05:17:34;98140.41;;;10.26;76.84
75543;BME280;64129;53.508;10.476;2023-03-14T05:20:26;98134.91;;;10.29;76.05
75543;BME280;64129;53.508;10.476;2023-03-14T05:23:02;98141.06;;;10.29;76.13
75543;BME280;64129;53.508;10.476;2023-03-14T05:25:47;98130.47;;;10.29;76.68
75543;BME280;64129;53.508;10.476;2023-03-14T05:28:43;98133.88;;;10.31;76.19
75543;BME280;64129;53.508;10.476;2023-03-14T05:31:30;98134.16;;;10.27;76.74
75543;BME280;64129;53.508;10.476;2023-03-14T05:34:09;98139.94;;;10.19;77.65
75543;BME280;64129;53.508;10.476;2023-03-14T05:36:44;98128.41;;;10.20;77.68
75543;BME280;64129;53.508;10.476;2023-03-14T05:39:34;98116.84;;;10.21;77.29
75543;BME280;64129;53.508;10.476;2023-03-14T05:42:09;98123.38;;;10.16;77.14
75543;BME280;64129;53.508;10.476;2023-03-14T05:44:59;98123.75;;;10.10;77.73
75543;BME280;64129;53.508;10.476;2023-03-14T05:47:44;98117.63;;;10.09;77.65
75543;BME280;64129;53.508;10.476;2023-03-14T05:50:40;98112.50;;;10.06;77.22
75543;BME280;64129;53.508;10.476;2023-03-14T05:53:19;98121.56;;;10.02;77.60
75543;BME280;64129;53.508;10.476;2023-03-14T05:55:55;98111.72;;;10.04;77.89
75543;BME280;64129;53.508;10.476;2023-03-14T05:58:40;98119.69;;;10.04;77.64
75543;BME280;64129;53.508;10.476;2023-03-14T06:01:22;98119.13;;;9.99;77.60
75543;BME280;64129;53.508;10.476;2023-03-14T06:04:04;98121.22;;;10.08;77.72
75543;BME280;64129;53.508;10.476;2023-03-14T06:06:30;98119.50;;;10.07;77.43
75543;BME280;64129;53.508;10.476;2023-03-14T06:08:58;98105.31;;;10.08;76.92
75543;BME280;64129;53.508;10.476;2023-03-14T06:11:25;98112.31;;;10.09;76.58
75543;BME280;64129;53.508;10.476;2023-03-14T06:13:51;98122.06;;;10.09;76.77
75543;BME280;64129;53.508;10.476;2023-03-14T06:16:18;98141.28;;;10.12;77.13
75543;BME280;64129;53.508;10.476;2023-03-14T06:18:45;98121.22;;;10.08;77.42
75543;BME280;64129;53.508;10.476;2023-03-14T06:21:13;98129.72;;;10.13;76.99
75543;BME280;64129;53.508;10.476;2023-03-14T06:23:40;98126.31;;;10.11;76.52
75543;BME280;64129;53.508;10.476;2023-03-14T06:26:06;98122.22;;;10.06;77.18
75543;BME280;64129;53.508;10.476;2023-03-14T06:28:33;98128.13;;;10.11;76.08
75543;BME280;64129;53.508;10.476;2023-03-14T06:31:02;98138.06;;;10.07;76.52
75543;BME280;64129;53.508;10.476;2023-03-14T06:33:35;98148.94;;;10.02;76.81
75543;BME280;64129;53.508;10.476;2023-03-14T06:36:02;98127.72;;;10.02;76.86
75543;BME280;64129;53.508;10.476;2023-03-14T06:38:29;98135.59;;;10.04;77.52
75543;BME280;64129;53.508;10.476;2023-03-14T06:41:03;98126.78;;;10.04;77.53
75543;BME280;64129;53.508;10.476;2023-03-14T06:43:34;98151.69;;;10.01;77.00
75543;BME280;64129;53.508;10.476;2023-03-14T06:46:01;98141.28;;;9.98;76.96
75543;BME280;64129;53.508;10.476;2023-03-14T06:48:29;98141.47;;;9.95;76.71
75543;BME280;64129;53.508;10.476;2023-03-14T06:50:56;98143.19;;;9.96;77.58
75543;BME280;64129;53.508;10.476;2023-03-14T06:53:23;98148.56;;;9.94;77.11
75543;BME280;64129;53.508;10.476;2023-03-14T06:55:50;98151.31;;;9.93;77.45
75543;BME280;64129;53.508;10.476;2023-03-14T06:58:17;98143.84;;;9.85;77.55
75543;BME280;64129;53.508;10.476;2023-03-14T07:00:44;98152.47;;;9.89;77.49
75543;BME280;64129;53.508;10.476;2023-03-14T07:03:15;98157.78;;;9.89;77.43
75543;BME280;64129;53.508;10.476;2023-03-14T07:05:46;98157.56;;;9.92;76.76
75543;BME280;64129;53.508;10.476;2023-03-14T07:08:13;98171.97;;;9.88;76.53
75543;BME280;64129;53.508;10.476;2023-03-14T07:10:39;98171.78;;;9.91;77.25
75543;BME280;64129;53.508;10.476;2023-03-14T07:13:07;98167.22;;;9.93;76.90
75543;BME280;64129;53.508;10.476;2023-03-14T07:15:40;98189.78;;;9.86;76.38
75543;BME280;64129;53.508;10.476;2023-03-14T07:18:08;98188.06;;;9.85;76.84
75543;BME280;64129;53.508;10.476;2023-03-14T07:20:35;98189.59;;;9.89;77.29
75543;BME280;64129;53.508;10.476;2023-03-14T07:23:02;98198.28;;;9.91;76.44
75543;BME280;64129;53.508;10.476;2023-03-14T07:25:37;98196.41;;;9.93;76.60
75543;BME280;64129;53.508;10.476;2023-03-14T07:28:04;98198.56;;;10.00;76.54
75543;BME280;64129;53.508;10.476;2023-03-14T07:30:30;98208.31;;;10.00;75.43
75543;BME280;64129;53.508;10.476;2023-03-14T07:32:59;98201.22;;;10.15;75.88
75543;BME280;64129;53.508;10.476;2023-03-14T07:35:26;98203.97;;;10.13;74.96
75543;BME280;64129;53.508;10.476;2023-03-14T07:37:53;98199.06;;;10.07;75.38
75543;BME280;64129;53.508;10.476;2023-03-14T07:40:27;98211.53;;;10.05;75.19
75543;BME280;64129;53.508;10.476;2023-03-14T07:42:54;98211.53;;;10.05;74.35
75543;BME280;64129;53.508;10.476;2023-03-14T07:45:27;98209.19;;;10.29;74.18
75543;BME280;64129;53.508;10.476;2023-03-14T07:47:53;98210.25;;;10.26;73.36
75543;BME280;64129;53.508;10.476;2023-03-14T07:50:26;98209.75;;;10.20;74.05
75543;BME280;64129;53.508;10.476;2023-03-14T07:52:55;98206.63;;;10.27;73.70
75543;BME280;64129;53.508;10.476;2023-03-14T07:55:21;98232.41;;;10.11;73.76
75543;BME280;64129;53.508;10.476;2023-03-14T07:57:48;98218.94;;;10.14;73.45
75543;BME280;64129;53.508;10.476;2023-03-14T08:00:15;98215.94;;;10.20;73.70
75543;BME280;64129;53.508;10.476;2023-03-14T08:02:41;98206.34;;;10.18;74.54
75543;BME280;64129;53.508;10.476;2023-03-14T08:05:08;98205.97;;;10.10;74.28
75543;BME280;64129;53.508;10.476;2023-03-14T08:07:35;98218.00;;;10.15;74.46
75543;BME280;64129;53.508;10.476;2023-03-14T08:10:02;98218.09;;;10.28;74.30
75543;BME280;64129;53.508;10.476;2023-03-14T08:12:29;98217.63;;;10.21;74.52
75543;BME280;64129;53.508;10.476;2023-03-14T08:14:55;98204.53;;;10.32;74.65
75543;BME280;64129;53.508;10.476;2023-03-14T08:17:22;98216.00;;;10.33;74.84
75543;BME280;64129;53.508;10.476;2023-03-14T08:19:48;98211.75;;;10.30;75.12
75543;BME280;64129;53.508;10.476;2023-03-14T08:22:15;98213.44;;;10.46;75.03
75543;BME280;64129;53.508;10.476;2023-03-14T08:24:44;98217.06;;;10.30;75.32
75543;BME280;64129;53.508;10.476;2023-03-14T08:27:11;98211.34;;;10.37;74.87
75543;BME280;64129;53.508;10.476;2023-03-14T08:29:37;98211.09;;;10.27;75.16
75543;BME280;64129;53.508;10.476;2023-03-14T08:32:04;98192.63;;;10.25;75.04
75543;BME280;64129;53.508;10.476;2023-03-14T08:34:32;98209.94;;;10.31;75.45
75543;BME280;64129;53.508;10.476;2023-03-14T08:36:59;98196.78;;;10.44;75.27
75543;BME280;64129;53.508;10.476;2023-03-14T08:39:26;98205.94;;;10.38;75.07
75543;BME280;64129;53.508;10.476;2023-03-14T08:41:52;98199.47;;;10.56;75.36
75543;BME280;64129;53.508;10.476;2023-03-14T08:44:19;98201.28;;;10.56;74.37
75543;BME280;64129;53.508;10.476;2023-03-14T08:46:46;98207.25;;;10.59;74.67
75543;BME280;64129;53.508;10.476;2023-03-14T08:49:13;98195.16;;;10.68;73.57
75543;BME280;64129;53.508;10.476;2023-03-14T08:51:40;98195.97;;;11.10;72.76
75543;BME280;64129;53.508;10.476;2023-03-14T08:54:10;98190.00;;;11.06;72.91
75543;BME280;64129;53.508;10.476;2023-03-14T08:56:36;98192.94;;;11.29;72.67
75543;BME280;64129;53.508;10.476;2023-03-14T08:59:06;98192.44;;;11.09;72.50
75543;BME280;64129;53.508;10.476;2023-03-14T09:01:34;98198.91;;;11.05;71.81
75543;BME280;64129;53.508;10.476;2023-03-14T09:04:00;98182.13;;;11.05;71.07
75543;BME280;64129;53.508;10.476;2023-03-14T09:06:27;98195.97;;;11.10;70.89
75543;BME280;64129;53.508;10.476;2023-03-14T09:08:53;98186.53;;;11.18;70.24
75543;BME280;64129;53.508;10.476;2023-03-14T09:11:20;98192.91;;;11.16;70.25
75543;BME280;64129;53.508;10.476;2023-03-14T09:13:47;98180.59;;;11.15;71.17
75543;BME280;64129;53.508;10.476;2023-03-14T09:16:15;98188.13;;;11.21;71.86
75543;BME280;64129;53.508;10.476;2023-03-14T09:18:41;98172.84;;;11.24;70.54
75543;BME280;64129;53.508;10.476;2023-03-14T09:21:08;98177.94;;;11.40;70.45
75543;BME280;64129;53.508;10.476;2023-03-14T09:23:34;98175.94;;;11.31;69.89
75543;BME280;64129;53.508;10.476;2023-03-14T09:26:01;98172.00;;;11.24;69.10
75543;BME280;64129;53.508;10.476;2023-03-14T09:28:27;98186.22;;;11.23;68.70
75543;BME280;64129;53.508;10.476;2023-03-14T09:30:54;98185.81;;;11.29;69.81
75543;BME280;64129;53.508;10.476;2023-03-14T09:33:21;98186.03;;;11.26;69.18
75543;BME280;64129;53.508;10.476;2023-03-14T09:35:48;98190.25;;;11.16;69.51
75543;BME280;64129;53.508;10.476;2023-03-14T09:38:14;98188.25;;;11.19;69.18
75543;BME280;64129;53.508;10.476;2023-03-14T09:40:42;98187.28;;;11.20;68.33
75543;BME280;64129;53.508;10.476;2023-03-14T09:43:11;98179.66;;;11.29;69.43
75543;BME280;64129;53.508;10.476;2023-03-14T09:45:40;98177.41;;;11.22;68.52
75543;BME280;64129;53.508;10.476;2023-03-14T09:48:16;98186.44;;;11.33;68.58
75543;BME280;64129;53.508;10.476;2023-03-14T09:50:47;98180.50;;;11.29;68.96
75543;BME280;64129;53.508;10.476;2023-03-14T09:53:21;98194.75;;;11.28;68.04
75543;BME280;64129;53.508;10.476;2023-03-14T09:55:50;98191.66;;;11.34;68.83
75543;BME280;64129;53.508;10.476;2023-03-14T09:58:22;98198.25;;;11.41;69.25
75543;BME280;64129;53.508;10.476;2023-03-14T10:00:49;98189.66;;;11.38;68.17
75543;BME280;64129;53.508;10.476;2023-03-14T10:03:40;98197.81;;;11.35;67.22
75543;BME280;64129;53.508;10.476;2023-03-14T10:06:11;98188.50;;;11.54;67.59
75543;BME280;64129;53.508;10.476;2023-03-14T10:08:42;98184.56;;;11.60;66.95
75543;BME280;64129;53.508;10.476;2023-03-14T10:11:17;98185.63;;;11.57;67.08
75543;BME280;64129;53.508;10.476;2023-03-14T10:16:32;98184.38;;;11.50;67.39
75543;BME280;64129;53.508;10.476;2023-03-14T10:19:04;98192.66;;;11.46;67.82
75543;BME280;64129;53.508;10.476;2023-03-14T10:21:39;98189.91;;;11.47;67.47
75543;BME280;64129;53.508;10.476;2023-03-14T10:24:18;98200.53;;;11.47;68.05
75543;BME280;64129;53.508;10.476;2023-03-14T10:26:48;98214.56;;;11.49;69.39
75543;BME280;64129;53.508;10.476;2023-03-14T10:29:15;98241.69;;;11.15;72.46
75543;BME280;64129;53.508;10.476;2023-03-14T10:34:25;98276.84;;;10.36;78.69
75543;BME280;64129;53.508;10.476;2023-03-14T10:36:59;98283.19;;;10.48;79.17
75543;BME280;64129;53.508;10.476;2023-03-14T10:39:46;98305.91;;;10.09;80.29
75543;BME280;64129;53.508;10.476;2023-03-14T10:42:15;98313.66;;;10.12;81.42
75543;BME280;64129;53.508;10.476;2023-03-14T10:44:45;98318.66;;;9.58;79.89
75543;BME280;64129;53.508;10.476;2023-03-14T10:47:21;98338.69;;;9.32;80.12
75543;BME280;64129;53.508;10.476;2023-03-14T10:49:48;98328.44;;;9.42;80.08
75543;BME280;64129;53.508;10.476;2023-03-14T10:52:21;98336.88;;;9.33;80.59
75543;BME280;64129;53.508;10.476;2023-03-14T10:55:01;98353.41;;;8.91;81.65
75543;BME280;64129;53.508;10.476;2023-03-14T10:57:28;98368.44;;;8.90;82.03
75543;BME280;64129;53.508;10.476;2023-03-14T10:59:56;98371.84;;;8.92;82.56
75543;BME280;64129;53.508;10.476;2023-03-14T11:07:43;98421.06;;;8.29;80.89
75543;BME280;64129;53.508;10.476;2023-03-14T11:10:31;98435.13;;;8.29;80.63
75543;BME280;64129;53.508;10.476;2023-03-14T11:15:50;98470.22;;;7.62;81.81
75543;BME280;64129;53.508;10.476;2023-03-14T11:21:35;98495.28;;;6.97;82.06
75543;BME280;64129;53.508;10.476;2023-03-14T11:27:16;98516.69;;;6.71;81.19
75543;BME280;64129;53.508;10.476;2023-03-14T11:32:40;98557.28;;;6.26;82.25
75543;BME280;64129;53.508;10.476;2023-03-14T11:35:26;98563.09;;;6.54;81.87
75543;BME280;64129;53.508;10.476;2023-03-14T11:40:43;98575.66;;;6.06;80.80
75543;BME280;64129;53.508;10.476;2023-03-14T11:43:18;98587.38;;;5.75;80.65
75543;BME280;64129;53.508;10.476;2023-03-14T11:45:48;98612.22;;;5.68;80.28
75543;BME280;64129;53.508;10.476;2023-03-14T11:48:36;98641.50;;;4.87;81.71
75543;BME280;64129;53.508;10.476;2023-03-14T11:51:11;98645.59;;;5.19;82.13
75543;BME280;64129;53.508;10.476;2023-03-14T11:56:23;98669.28;;;5.19;82.46
75543;BME280;64129;53.508;10.476;2023-03-14T11:59:05;98665.91;;;5.16;81.34
75543;BME280;64129;53.508;10.476;2023-03-14T12:02:00;98689.47;;;4.94;81.61
75543;BME280;64129;53.508;10.476;2023-03-14T12:04:48;98695.34;;;5.02;82.17
75543;BME280;64129;53.508;10.476;2023-03-14T12:07:20;98695.00;;;5.11;81.94
75543;BME280;64129;53.508;10.476;2023-03-14T12:09:49;98697.47;;;4.64;82.15
75543;BME280;64129;53.508;10.476;2023-03-14T12:12:22;98713.44;;;5.11;81.35
75543;BME280;64129;53.508;10.476;2023-03-14T12:14:56;98715.47;;;4.77;80.55
75543;BME280;64129;53.508;10.476;2023-03-14T12:17:40;98730.34;;;5.04;80.91
75543;BME280;64129;53.508;10.476;2023-03-14T12:20:19;98743.28;;;4.84;79.26
75543;BME280;64129;53.508;10.476;2023-03-14T12:22:49;98742.47;;;5.08;80.07
75543;BME280;64129;53.508;10.476;2023-03-14T12:25:26;98756.44;;;5.10;81.47
75543;BME280;64129;53.508;10.476;2023-03-14T12:30:29;98764.91;;;4.93;77.88
75543;BME280;64129;53.508;10.476;2023-03-14T12:35:44;98768.88;;;5.05;78.57
75543;BME280;64129;53.508;10.476;2023-03-14T12:41:17;98789.44;;;4.94;78.45
75543;BME280;64129;53.508;10.476;2023-03-14T12:43:44;98793.69;;;4.98;76.54
75543;BME280;64129;53.508;10.476;2023-03-14T12:46:24;98798.44;;;4.87;77.15
75543;BME280;64129;53.508;10.476;2023-03-14T12:48:57;98808.66;;;4.68;78.28
75543;BME280;64129;53.508;10.476;2023-03-14T12:51:41;98817.19;;;5.03;78.14
75543;BME280;64129;53.508;10.476;2023-03-14T12:54:30;98818.50;;;5.16;77.64
75543;BME280;64129;53.508;10.476;2023-03-14T12:57:28;98832.22;;;4.99;78.02
75543;BME280;64129;53.508;10.476;2023-03-14T13:00:00;98838.00;;;5.10;77.93
75543;BME280;64129;53.508;10.476;2023-03-14T13:02:47;98843.00;;;5.18;76.00
75543;BME280;64129;53.508;10.476;2023-03-14T13:05:19;98849.13;;;5.18;75.73
75543;BME280;64129;53.508;10.476;2023-03-14T13:10:18;98858.63;;;4.96;74.34
75543;BME280;64129;53.508;10.476;2023-03-14T13:15:19;98870.09;;;4.93;74.32
75543;BME280;64129;53.508;10.476;2023-03-14T13:17:47;98875.38;;;5.21;76.09
75543;BME280;64129;53.508;10.476;2023-03-14T13:20:24;98884.38;;;5.41;77.74
75543;BME280;64129;53.508;10.476;2023-03-14T13:22:52;98892.69;;;5.28;75.23
75543;BME280;64129;53.508;10.476;2023-03-14T13:25:19;98892.16;;;5.44;75.89
75543;BME280;64129;53.508;10.476;2023-03-14T13:27:47;98908.16;;;5.38;75.13
75543;BME280;64129;53.508;10.476;2023-03-14T13:30:19;98907.75;;;5.50;74.24
75543;BME280;64129;53.508;10.476;2023-03-14T13:32:47;98919.16;;;5.50;75.17
75543;BME280;64129;53.508;10.476;2023-03-14T13:35:15;98917.91;;;5.62;75.37
75543;BME280;64129;53.508;10.476;2023-03-14T13:37:42;98928.94;;;5.47;75.86
75543;BME280;64129;53.508;10.476;2023-03-14T13:40:24;98939.84;;;5.35;75.94
75543;BME280;64129;53.508;10.476;2023-03-14T13:45:50;98954.31;;;5.21;75.48
75543;BME280;64129;53.508;10.476;2023-03-14T13:48:18;98952.41;;;5.26;77.10
75543;BME280;64129;53.508;10.476;2023-03-14T13:50:58;98943.22;;;5.10;77.05
75543;BME280;64129;53.508;10.476;2023-03-14T13:53:26;98948.75;;;5.30;76.97
75543;BME280;64129;53.508;10.476;2023-03-14T13:55:53;98958.72;;;5.19;77.09
75543;BME280;64129;53.508;10.476;2023-03-14T13:58:25;98962.81;;;5.29;75.92
75543;BME280;64129;53.508;10.476;2023-03-14T14:00:59;98957.72;;;5.25;75.22
75543;BME280;64129;53.508;10.476;2023-03-14T14:03:27;98947.03;;;5.29;75.80
75543;BME280;64129;53.508;10.476;2023-03-14T14:05:55;98949.91;;;5.22;76.02